sensor_id;sensor_type;location;lat;lon;timestamp;pressure;altitude;pressure_sealevel;temperature;humidity
38786;BME280;24535;45.508;12.252;2024-02-15T00:00:12;102464.22;;;13.69;58.59
38786;BME280;24535;45.508;12.252;2024-02-15T00:02:41;102457.31;;;13.67;58.73
38786;BME280;24535;45.508;12.252;2024-02-15T00:05:08;102460.81;;;13.67;59.18
38786;BME280;24535;45.508;12.252;2024-02-15T00:07:33;102458.00;;;13.70;58.94
38786;BME280;24535;45.508;12.252;2024-02-15T00:10:00;102468.63;;;13.70;58.64
38786;BME280;24535;45.508;12.252;2024-02-15T00:12:26;102459.03;;;13.68;59.01
38786;BME280;24535;45.508;12.252;2024-02-15T00:14:52;102455.53;;;13.67;59.16
38786;BME280;24535;45.508;12.252;2024-02-15T00:17:17;102459.03;;;13.68;59.02
38786;BME280;24535;45.508;12.252;2024-02-15T00:19:43;102470.47;;;13.68;59.14
38786;BME280;24535;45.508;12.252;2024-02-15T00:22:09;102477.56;;;13.68;59.14
38786;BME280;24535;45.508;12.252;2024-02-15T00:24:37;102476.72;;;13.67;58.88
38786;BME280;24535;45.508;12.252;2024-02-15T00:27:03;102475.00;;;13.66;59.36
38786;BME280;24535;45.508;12.252;2024-02-15T00:29:29;102477.72;;;13.65;58.76
38786;BME280;24535;45.508;12.252;2024-02-15T00:31:56;102476.00;;;13.64;58.68
38786;BME280;24535;45.508;12.252;2024-02-15T00:34:21;102467.38;;;13.60;58.96
38786;BME280;24535;45.508;12.252;2024-02-15T00:36:47;102469.00;;;13.63;58.98
38786;BME280;24535;45.508;12.252;2024-02-15T00:39:12;102468.16;;;13.62;59.07
38786;BME280;24535;45.508;12.252;2024-02-15T00:41:39;102464.66;;;13.62;58.77
38786;BME280;24535;45.508;12.252;2024-02-15T00:44:08;102450.72;;;13.58;59.06
38786;BME280;24535;45.508;12.252;2024-02-15T00:46:36;102453.50;;;13.55;58.67
38786;BME280;24535;45.508;12.252;2024-02-15T00:49:02;102455.47;;;13.51;58.65
38786;BME280;24535;45.508;12.252;2024-02-15T00:51:27;102459.91;;;13.51;58.42
38786;BME280;24535;45.508;12.252;2024-02-15T00:53:53;102452.81;;;13.51;58.82
38786;BME280;24535;45.508;12.252;2024-02-15T00:56:18;102452.81;;;13.51;58.92
38786;BME280;24535;45.508;12.252;2024-02-15T00:58:44;102453.81;;;13.49;59.04
38786;BME280;24535;45.508;12.252;2024-02-15T01:01:09;102451.16;;;13.49;58.95
38786;BME280;24535;45.508;12.252;2024-02-15T01:03:35;102442.47;;;13.47;58.89
38786;BME280;24535;45.508;12.252;2024-02-15T01:06:01;102446.75;;;13.49;58.65
38786;BME280;24535;45.508;12.252;2024-02-15T01:08:27;102443.31;;;13.47;58.30
38786;BME280;24535;45.508;12.252;2024-02-15T01:10:53;102441.59;;;13.46;58.80
38786;BME280;24535;45.508;12.252;2024-02-15T01:13:18;102445.25;;;13.44;58.67
38786;BME280;24535;45.508;12.252;2024-02-15T01:15:44;102448.59;;;13.47;59.01
38786;BME280;24535;45.508;12.252;2024-02-15T01:18:11;102442.59;;;13.44;58.67
38786;BME280;24535;45.508;12.252;2024-02-15T01:20:37;102448.75;;;13.44;59.01
38786;BME280;24535;45.508;12.252;2024-02-15T01:23:02;102455.84;;;13.44;59.00
38786;BME280;24535;45.508;12.252;2024-02-15T01:25:28;102448.94;;;13.41;58.46
38786;BME280;24535;45.508;12.252;2024-02-15T01:27:53;102445.25;;;13.44;58.25
38786;BME280;24535;45.508;12.252;2024-02-15T01:30:21;102447.91;;;13.44;58.00
38786;BME280;24535;45.508;12.252;2024-02-15T01:32:46;102441.75;;;13.43;58.65
38786;BME280;24535;45.508;12.252;2024-02-15T01:35:12;102439.34;;;13.39;58.66
38786;BME280;24535;45.508;12.252;2024-02-15T01:37:38;102432.25;;;13.39;58.04
38786;BME280;24535;45.508;12.252;2024-02-15T01:40:05;102429.75;;;13.36;58.09
38786;BME280;24535;45.508;12.252;2024-02-15T01:42:32;102439.34;;;13.39;58.86
38786;BME280;24535;45.508;12.252;2024-02-15T01:44:57;102431.50;;;13.37;58.57
38786;BME280;24535;45.508;12.252;2024-02-15T01:47:23;102430.56;;;13.38;58.47
38786;BME280;24535;45.508;12.252;2024-02-15T01:49:49;102419.97;;;13.38;58.22
38786;BME280;24535;45.508;12.252;2024-02-15T01:52:16;102419.19;;;13.36;58.53
38786;BME280;24535;45.508;12.252;2024-02-15T01:54:42;102418.19;;;13.39;58.34
38786;BME280;24535;45.508;12.252;2024-02-15T01:57:08;102415.78;;;13.34;58.48
38786;BME280;24535;45.508;12.252;2024-02-15T01:59:34;102427.13;;;13.36;58.08
38786;BME280;24535;45.508;12.252;2024-02-15T02:02:02;102417.63;;;13.32;58.13
38786;BME280;24535;45.508;12.252;2024-02-15T02:04:28;102419.41;;;13.31;58.87
38786;BME280;24535;45.508;12.252;2024-02-15T02:06:57;102426.50;;;13.31;58.12
38786;BME280;24535;45.508;12.252;2024-02-15T02:09:23;102428.22;;;13.32;58.55
38786;BME280;24535;45.508;12.252;2024-02-15T02:11:49;102432.59;;;13.33;58.44
38786;BME280;24535;45.508;12.252;2024-02-15T02:14:16;102425.75;;;13.29;58.50
38786;BME280;24535;45.508;12.252;2024-02-15T02:16:41;102425.66;;;13.30;58.79
38786;BME280;24535;45.508;12.252;2024-02-15T02:19:07;102419.41;;;13.31;58.70
38786;BME280;24535;45.508;12.252;2024-02-15T02:21:35;102409.88;;;13.29;58.62
38786;BME280;24535;45.508;12.252;2024-02-15T02:24:02;102413.28;;;13.31;58.76
38786;BME280;24535;45.508;12.252;2024-02-15T02:26:33;102414.97;;;13.32;58.56
38786;BME280;24535;45.508;12.252;2024-02-15T02:29:00;102416.78;;;13.31;58.33
38786;BME280;24535;45.508;12.252;2024-02-15T02:31:35;102412.31;;;13.32;58.36
38786;BME280;24535;45.508;12.252;2024-02-15T02:34:00;102410.63;;;13.31;58.86
38786;BME280;24535;45.508;12.252;2024-02-15T02:36:26;102411.41;;;13.33;59.11
38786;BME280;24535;45.508;12.252;2024-02-15T02:38:52;102404.34;;;13.33;58.75
38786;BME280;24535;45.508;12.252;2024-02-15T02:41:17;102393.75;;;13.33;58.78
38786;BME280;24535;45.508;12.252;2024-02-15T02:43:44;102395.53;;;13.33;58.39
38786;BME280;24535;45.508;12.252;2024-02-15T02:46:11;102415.69;;;13.35;58.35
38786;BME280;24535;45.508;12.252;2024-02-15T02:48:39;102410.53;;;13.32;58.11
38786;BME280;24535;45.508;12.252;2024-02-15T02:51:06;102413.19;;;13.32;57.76
38786;BME280;24535;45.508;12.252;2024-02-15T02:53:32;102415.91;;;13.31;58.33
38786;BME280;24535;45.508;12.252;2024-02-15T02:55:57;102398.34;;;13.30;58.21
38786;BME280;24535;45.508;12.252;2024-02-15T02:58:23;102397.53;;;13.28;58.39
38786;BME280;24535;45.508;12.252;2024-02-15T03:00:49;102401.91;;;13.29;58.03
38786;BME280;24535;45.508;12.252;2024-02-15T03:03:15;102411.56;;;13.30;58.10
38786;BME280;24535;45.508;12.252;2024-02-15T03:05:41;102405.41;;;13.29;58.30
38786;BME280;24535;45.508;12.252;2024-02-15T03:08:08;102413.13;;;13.34;58.34
38786;BME280;24535;45.508;12.252;2024-02-15T03:10:34;102405.34;;;13.31;58.64
38786;BME280;24535;45.508;12.252;2024-02-15T03:13:00;102418.41;;;13.34;58.77
38786;BME280;24535;45.508;12.252;2024-02-15T03:15:25;102413.97;;;13.34;58.52
38786;BME280;24535;45.508;12.252;2024-02-15T03:17:51;102416.72;;;13.33;58.08
38786;BME280;24535;45.508;12.252;2024-02-15T03:20:17;102411.47;;;13.31;59.04
38786;BME280;24535;45.508;12.252;2024-02-15T03:22:55;102419.25;;;13.34;58.73
38786;BME280;24535;45.508;12.252;2024-02-15T03:25:21;102422.00;;;13.33;58.90
38786;BME280;24535;45.508;12.252;2024-02-15T03:27:51;102421.81;;;13.36;58.80
38786;BME280;24535;45.508;12.252;2024-02-15T03:30:20;102422.75;;;13.35;58.43
38786;BME280;24535;45.508;12.252;2024-02-15T03:32:46;102420.13;;;13.35;58.46
38786;BME280;24535;45.508;12.252;2024-02-15T03:35:15;102412.31;;;13.32;58.48
38786;BME280;24535;45.508;12.252;2024-02-15T03:37:40;102419.34;;;13.33;58.87
38786;BME280;24535;45.508;12.252;2024-02-15T03:40:07;102425.66;;;13.30;58.21
38786;BME280;24535;45.508;12.252;2024-02-15T03:42:34;102423.84;;;13.31;57.94
38786;BME280;24535;45.508;12.252;2024-02-15T03:45:05;102413.28;;;13.31;58.21
38786;BME280;24535;45.508;12.252;2024-02-15T03:47:34;102412.41;;;13.30;58.45
38786;BME280;24535;45.508;12.252;2024-02-15T03:50:06;102408.91;;;13.30;57.65
38786;BME280;24535;45.508;12.252;2024-02-15T03:52:35;102408.06;;;13.29;57.81
38786;BME280;24535;45.508;12.252;2024-02-15T03:55:00;102403.78;;;13.27;58.35
38786;BME280;24535;45.508;12.252;2024-02-15T03:57:27;102402.06;;;13.26;57.93
38786;BME280;24535;45.508;12.252;2024-02-15T03:59:53;102400.28;;;13.26;58.11
38786;BME280;24535;45.508;12.252;2024-02-15T04:02:20;102398.56;;;13.25;57.65
38786;BME280;24535;45.508;12.252;2024-02-15T04:04:46;102399.44;;;13.26;57.96
38786;BME280;24535;45.508;12.252;2024-02-15T04:07:18;102399.34;;;13.27;58.04
38786;BME280;24535;45.508;12.252;2024-02-15T04:09:45;102396.78;;;13.26;57.48
38786;BME280;24535;45.508;12.252;2024-02-15T04:12:11;102401.22;;;13.25;58.65
38786;BME280;24535;45.508;12.252;2024-02-15T04:14:37;102401.97;;;13.27;58.15
38786;BME280;24535;45.508;12.252;2024-02-15T04:17:04;102395.06;;;13.25;58.24
38786;BME280;24535;45.508;12.252;2024-02-15T04:19:31;102402.94;;;13.26;57.99
38786;BME280;24535;45.508;12.252;2024-02-15T04:21:56;102404.72;;;13.26;58.37
38786;BME280;24535;45.508;12.252;2024-02-15T04:24:22;102403.00;;;13.25;57.92
38786;BME280;24535;45.508;12.252;2024-02-15T04:26:48;102409.22;;;13.24;58.02
38786;BME280;24535;45.508;12.252;2024-02-15T04:29:17;102402.22;;;13.23;58.05
38786;BME280;24535;45.508;12.252;2024-02-15T04:31:46;102403.28;;;13.19;57.99
38786;BME280;24535;45.508;12.252;2024-02-15T04:34:18;102406.88;;;13.18;57.46
38786;BME280;24535;45.508;12.252;2024-02-15T04:36:48;102404.22;;;13.18;57.76
38786;BME280;24535;45.508;12.252;2024-02-15T04:39:18;102406.06;;;13.16;57.57
38786;BME280;24535;45.508;12.252;2024-02-15T04:41:52;102407.81;;;13.17;57.63
38786;BME280;24535;45.508;12.252;2024-02-15T04:44:18;102409.56;;;13.16;58.11
38786;BME280;24535;45.508;12.252;2024-02-15T04:46:46;102396.44;;;13.15;58.03
38786;BME280;24535;45.508;12.252;2024-02-15T04:49:12;102399.16;;;13.13;57.28
38786;BME280;24535;45.508;12.252;2024-02-15T04:51:38;102411.59;;;13.11;57.49
38786;BME280;24535;45.508;12.252;2024-02-15T04:54:09;102415.03;;;13.13;57.97
38786;BME280;24535;45.508;12.252;2024-02-15T04:56:41;102436.13;;;13.15;57.46
38786;BME280;24535;45.508;12.252;2024-02-15T04:59:07;102422.91;;;13.15;57.68
38786;BME280;24535;45.508;12.252;2024-02-15T05:01:43;102415.81;;;13.15;57.59
38786;BME280;24535;45.508;12.252;2024-02-15T05:04:10;102403.63;;;13.13;57.51
38786;BME280;24535;45.508;12.252;2024-02-15T05:06:35;102414.09;;;13.14;57.06
38786;BME280;24535;45.508;12.252;2024-02-15T05:09:02;102416.75;;;13.14;57.74
38786;BME280;24535;45.508;12.252;2024-02-15T05:11:33;102422.13;;;13.13;57.07
38786;BME280;24535;45.508;12.252;2024-02-15T05:14:20;102419.50;;;13.13;57.39
38786;BME280;24535;45.508;12.252;2024-02-15T05:16:49;102422.03;;;13.14;57.02
38786;BME280;24535;45.508;12.252;2024-02-15T05:19:18;102423.03;;;13.11;57.58
38786;BME280;24535;45.508;12.252;2024-02-15T05:21:45;102420.34;;;13.13;58.07
38786;BME280;24535;45.508;12.252;2024-02-15T05:24:12;102420.25;;;13.15;57.61
38786;BME280;24535;45.508;12.252;2024-02-15T05:26:39;102425.53;;;13.15;56.94
38786;BME280;24535;45.508;12.252;2024-02-15T05:29:05;102415.03;;;13.13;57.72
38786;BME280;24535;45.508;12.252;2024-02-15T05:31:31;102416.84;;;13.13;57.29
38786;BME280;24535;45.508;12.252;2024-02-15T05:33:56;102419.50;;;13.13;57.01
38786;BME280;24535;45.508;12.252;2024-02-15T05:36:23;102417.00;;;13.09;57.68
38786;BME280;24535;45.508;12.252;2024-02-15T05:38:54;102415.09;;;13.11;57.93
38786;BME280;24535;45.508;12.252;2024-02-15T05:41:20;102415.09;;;13.11;56.95
38786;BME280;24535;45.508;12.252;2024-02-15T05:43:46;102419.69;;;13.08;57.07
38786;BME280;24535;45.508;12.252;2024-02-15T05:46:14;102416.19;;;13.07;57.15
38786;BME280;24535;45.508;12.252;2024-02-15T05:48:40;102427.72;;;13.06;57.21
38786;BME280;24535;45.508;12.252;2024-02-15T05:51:07;102417.97;;;13.07;57.40
38786;BME280;24535;45.508;12.252;2024-02-15T05:53:34;102415.34;;;13.07;57.15
38786;BME280;24535;45.508;12.252;2024-02-15T05:56:06;102410.13;;;13.05;56.97
38786;BME280;24535;45.508;12.252;2024-02-15T05:58:32;102407.50;;;13.05;57.39
38786;BME280;24535;45.508;12.252;2024-02-15T06:00:59;102405.75;;;13.04;57.52
38786;BME280;24535;45.508;12.252;2024-02-15T06:03:28;102406.69;;;13.03;57.35
38786;BME280;24535;45.508;12.252;2024-02-15T06:05:55;102402.25;;;13.04;57.48
38786;BME280;24535;45.508;12.252;2024-02-15T06:08:24;102398.69;;;13.05;57.71
38786;BME280;24535;45.508;12.252;2024-02-15T06:10:50;102405.75;;;13.04;57.00
38786;BME280;24535;45.508;12.252;2024-02-15T06:13:16;102405.59;;;13.07;57.98
38786;BME280;24535;45.508;12.252;2024-02-15T06:15:41;102408.34;;;13.06;57.63
38786;BME280;24535;45.508;12.252;2024-02-15T06:18:07;102409.19;;;13.06;57.55
38786;BME280;24535;45.508;12.252;2024-02-15T06:20:35;102419.78;;;13.06;57.23
38786;BME280;24535;45.508;12.252;2024-02-15T06:23:02;102426.72;;;13.09;57.02
38786;BME280;24535;45.508;12.252;2024-02-15T06:25:32;102421.47;;;13.07;57.48
38786;BME280;24535;45.508;12.252;2024-02-15T06:27:57;102424.97;;;13.08;57.72
38786;BME280;24535;45.508;12.252;2024-02-15T06:30:38;102424.13;;;13.07;57.22
38786;BME280;24535;45.508;12.252;2024-02-15T06:33:22;102430.28;;;13.08;57.65
38786;BME280;24535;45.508;12.252;2024-02-15T06:36:08;102443.59;;;13.06;57.79
38786;BME280;24535;45.508;12.252;2024-02-15T06:38:59;102447.19;;;13.05;57.26
38786;BME280;24535;45.508;12.252;2024-02-15T06:41:44;102443.69;;;13.05;56.82
38786;BME280;24535;45.508;12.252;2024-02-15T06:44:09;102444.59;;;13.04;57.49
38786;BME280;24535;45.508;12.252;2024-02-15T06:46:34;102451.69;;;13.03;56.88
38786;BME280;24535;45.508;12.252;2024-02-15T06:49:00;102457.09;;;13.00;57.02
38786;BME280;24535;45.508;12.252;2024-02-15T06:51:25;102458.63;;;13.06;57.23
38786;BME280;24535;45.508;12.252;2024-02-15T06:53:51;102463.06;;;13.05;57.70
38786;BME280;24535;45.508;12.252;2024-02-15T06:56:20;102461.31;;;13.04;57.73
38786;BME280;24535;45.508;12.252;2024-02-15T06:58:46;102463.06;;;13.05;57.48
38786;BME280;24535;45.508;12.252;2024-02-15T07:01:13;102458.63;;;13.06;57.57
38786;BME280;24535;45.508;12.252;2024-02-15T07:03:41;102458.63;;;13.06;57.59
38786;BME280;24535;45.508;12.252;2024-02-15T07:06:09;102467.31;;;13.08;57.44
38786;BME280;24535;45.508;12.252;2024-02-15T07:08:35;102463.06;;;13.05;57.28
38786;BME280;24535;45.508;12.252;2024-02-15T07:11:01;102465.69;;;13.05;57.25
38786;BME280;24535;45.508;12.252;2024-02-15T07:13:29;102469.09;;;13.07;57.49
38786;BME280;24535;45.508;12.252;2024-02-15T07:15:54;102472.69;;;13.06;57.30
38786;BME280;24535;45.508;12.252;2024-02-15T07:18:20;102478.78;;;13.08;57.99
38786;BME280;24535;45.508;12.252;2024-02-15T07:20:47;102475.19;;;13.09;57.58
38786;BME280;24535;45.508;12.252;2024-02-15T07:23:13;102476.91;;;13.10;57.92
38786;BME280;24535;45.508;12.252;2024-02-15T07:25:38;102475.19;;;13.09;57.73
38786;BME280;24535;45.508;12.252;2024-02-15T07:28:04;102482.09;;;13.12;57.35
38786;BME280;24535;45.508;12.252;2024-02-15T07:30:30;102481.44;;;13.08;57.74
38786;BME280;24535;45.508;12.252;2024-02-15T07:32:56;102483.13;;;13.09;57.51
38786;BME280;24535;45.508;12.252;2024-02-15T07:35:22;102479.63;;;13.09;57.76
38786;BME280;24535;45.508;12.252;2024-02-15T07:37:54;102480.41;;;13.11;57.28
38786;BME280;24535;45.508;12.252;2024-02-15T07:40:24;102484.06;;;13.08;57.43
38786;BME280;24535;45.508;12.252;2024-02-15T07:42:53;102485.63;;;13.13;58.27
38786;BME280;24535;45.508;12.252;2024-02-15T07:45:18;102484.75;;;13.12;57.83
38786;BME280;24535;45.508;12.252;2024-02-15T07:47:44;102478.59;;;13.11;57.99
38786;BME280;24535;45.508;12.252;2024-02-15T07:50:10;102479.41;;;13.14;57.59
38786;BME280;24535;45.508;12.252;2024-02-15T07:52:35;102475.09;;;13.11;58.28
38786;BME280;24535;45.508;12.252;2024-02-15T07:55:01;102482.91;;;13.14;58.16
38786;BME280;24535;45.508;12.252;2024-02-15T07:57:34;102479.63;;;13.09;57.74
38786;BME280;24535;45.508;12.252;2024-02-15T07:59:59;102478.69;;;13.10;58.23
38786;BME280;24535;45.508;12.252;2024-02-15T08:02:25;102476.06;;;13.10;58.20
38786;BME280;24535;45.508;12.252;2024-02-15T08:04:53;102470.91;;;13.07;57.33
38786;BME280;24535;45.508;12.252;2024-02-15T08:07:19;102475.34;;;13.06;57.61
38786;BME280;24535;45.508;12.252;2024-02-15T08:09:46;102477.00;;;13.09;58.22
38786;BME280;24535;45.508;12.252;2024-02-15T08:12:12;102484.84;;;13.10;58.10
38786;BME280;24535;45.508;12.252;2024-02-15T08:14:37;102481.34;;;13.10;58.17
38786;BME280;24535;45.508;12.252;2024-02-15T08:17:05;102478.59;;;13.11;58.02
38786;BME280;24535;45.508;12.252;2024-02-15T08:19:33;102475.09;;;13.11;58.43
38786;BME280;24535;45.508;12.252;2024-02-15T08:22:05;102483.91;;;13.11;57.85
38786;BME280;24535;45.508;12.252;2024-02-15T08:24:30;102485.63;;;13.13;58.50
38786;BME280;24535;45.508;12.252;2024-02-15T08:26:56;102484.84;;;13.10;57.63
38786;BME280;24535;45.508;12.252;2024-02-15T08:29:24;102483.06;;;13.11;58.50
38786;BME280;24535;45.508;12.252;2024-02-15T08:31:49;102480.50;;;13.09;57.87
38786;BME280;24535;45.508;12.252;2024-02-15T08:34:15;102482.09;;;13.12;58.40
38786;BME280;24535;45.508;12.252;2024-02-15T08:39:57;102490.84;;;13.14;58.36
38786;BME280;24535;45.508;12.252;2024-02-15T08:42:22;102483.00;;;13.13;58.02
38786;BME280;24535;45.508;12.252;2024-02-15T08:44:48;102475.06;;;13.13;58.50
38786;BME280;24535;45.508;12.252;2024-02-15T08:47:14;102483.00;;;13.13;57.62
38786;BME280;24535;45.508;12.252;2024-02-15T08:49:39;102487.34;;;13.14;57.94
38786;BME280;24535;45.508;12.252;2024-02-15T08:52:14;102482.91;;;13.14;58.56
38786;BME280;24535;45.508;12.252;2024-02-15T08:54:40;102485.47;;;13.16;58.15
38786;BME280;24535;45.508;12.252;2024-02-15T08:57:06;102477.59;;;13.14;58.26
38786;BME280;24535;45.508;12.252;2024-02-15T08:59:32;102482.06;;;13.14;58.64
38786;BME280;24535;45.508;12.252;2024-02-15T09:01:58;102485.41;;;13.17;58.37
38786;BME280;24535;45.508;12.252;2024-02-15T09:04:25;102478.38;;;13.16;58.62
38786;BME280;24535;45.508;12.252;2024-02-15T09:06:57;102480.03;;;13.19;58.21
38786;BME280;24535;45.508;12.252;2024-02-15T09:09:33;102485.41;;;13.17;58.67
38786;BME280;24535;45.508;12.252;2024-02-15T09:12:02;102477.53;;;13.16;58.29
38786;BME280;24535;45.508;12.252;2024-02-15T09:14:34;102483.66;;;13.16;58.58
38786;BME280;24535;45.508;12.252;2024-02-15T09:17:02;102479.31;;;13.15;58.15
38786;BME280;24535;45.508;12.252;2024-02-15T09:19:36;102481.03;;;13.16;58.86
38786;BME280;24535;45.508;12.252;2024-02-15T09:24:52;102474.88;;;13.16;58.76
38786;BME280;24535;45.508;12.252;2024-02-15T09:27:17;102482.66;;;13.19;58.71
38786;BME280;24535;45.508;12.252;2024-02-15T09:29:43;102478.47;;;13.15;58.97
38786;BME280;24535;45.508;12.252;2024-02-15T09:32:09;102479.31;;;13.15;58.13
38786;BME280;24535;45.508;12.252;2024-02-15T09:34:34;102485.41;;;13.17;58.62
38786;BME280;24535;45.508;12.252;2024-02-15T09:37:00;102483.66;;;13.16;58.86
38786;BME280;24535;45.508;12.252;2024-02-15T09:39:25;102490.63;;;13.19;58.47
38786;BME280;24535;45.508;12.252;2024-02-15T09:41:50;102480.88;;;13.19;58.53
38786;BME280;24535;45.508;12.252;2024-02-15T09:44:25;102494.06;;;13.21;58.40
38786;BME280;24535;45.508;12.252;2024-02-15T09:47:03;102485.22;;;13.20;58.45
38786;BME280;24535;45.508;12.252;2024-02-15T09:49:36;102484.56;;;13.17;58.89
38786;BME280;24535;45.508;12.252;2024-02-15T09:52:03;102482.66;;;13.19;59.00
38786;BME280;24535;45.508;12.252;2024-02-15T09:54:30;102490.41;;;13.23;58.22
38786;BME280;24535;45.508;12.252;2024-02-15T09:57:01;102485.16;;;13.22;58.57
38786;BME280;24535;45.508;12.252;2024-02-15T09:59:28;102488.66;;;13.22;58.85
38786;BME280;24535;45.508;12.252;2024-02-15T10:01:58;102476.31;;;13.23;58.50
38786;BME280;24535;45.508;12.252;2024-02-15T10:04:24;102477.97;;;13.25;58.56
38786;BME280;24535;45.508;12.252;2024-02-15T10:06:51;102486.63;;;13.29;58.65
38786;BME280;24535;45.508;12.252;2024-02-15T10:09:29;102488.31;;;13.30;59.21
38786;BME280;24535;45.508;12.252;2024-02-15T10:11:57;102489.25;;;13.29;58.95
38786;BME280;24535;45.508;12.252;2024-02-15T10:14:24;102483.78;;;13.32;58.62
38786;BME280;24535;45.508;12.252;2024-02-15T10:16:49;102485.69;;;13.30;58.34
38786;BME280;24535;45.508;12.252;2024-02-15T10:19:15;102493.63;;;13.30;58.19
38786;BME280;24535;45.508;12.252;2024-02-15T10:21:42;102493.63;;;13.30;58.46
38786;BME280;24535;45.508;12.252;2024-02-15T10:24:08;102484.97;;;13.26;58.19
38786;BME280;24535;45.508;12.252;2024-02-15T10:26:35;102476.94;;;13.28;58.71
38786;BME280;24535;45.508;12.252;2024-02-15T10:29:05;102480.38;;;13.30;58.57
38786;BME280;24535;45.508;12.252;2024-02-15T10:31:37;102480.28;;;13.31;59.41
38786;BME280;24535;45.508;12.252;2024-02-15T10:34:05;102486.63;;;13.29;58.57
38786;BME280;24535;45.508;12.252;2024-02-15T10:36:31;102474.28;;;13.28;58.89
38786;BME280;24535;45.508;12.252;2024-02-15T10:39:19;102485.59;;;13.31;58.92
38786;BME280;24535;45.508;12.252;2024-02-15T10:41:51;102469.78;;;13.30;58.98
38786;BME280;24535;45.508;12.252;2024-02-15T10:44:22;102467.16;;;13.30;59.10
38786;BME280;24535;45.508;12.252;2024-02-15T10:46:52;102463.56;;;13.31;58.81
38786;BME280;24535;45.508;12.252;2024-02-15T10:49:21;102454.53;;;13.35;58.67
38786;BME280;24535;45.508;12.252;2024-02-15T10:51:59;102453.53;;;13.38;59.67
38786;BME280;24535;45.508;12.252;2024-02-15T10:54:41;102444.75;;;13.37;59.53
38786;BME280;24535;45.508;12.252;2024-02-15T10:57:09;102451.78;;;13.36;59.32
38786;BME280;24535;45.508;12.252;2024-02-15T10:59:37;102444.75;;;13.37;59.29
38786;BME280;24535;45.508;12.252;2024-02-15T11:02:25;102441.28;;;13.35;59.69
38786;BME280;24535;45.508;12.252;2024-02-15T11:04:53;102431.66;;;13.34;58.99
38786;BME280;24535;45.508;12.252;2024-02-15T11:07:25;102419.25;;;13.34;59.35
38786;BME280;24535;45.508;12.252;2024-02-15T11:09:53;102415.78;;;13.34;59.70
38786;BME280;24535;45.508;12.252;2024-02-15T11:12:19;102420.91;;;13.37;59.12
38786;BME280;24535;45.508;12.252;2024-02-15T11:14:45;102404.09;;;13.38;59.75
38786;BME280;24535;45.508;12.252;2024-02-15T11:17:10;102412.72;;;13.42;59.03
38786;BME280;24535;45.508;12.252;2024-02-15T11:22:14;102395.06;;;13.42;59.35
38786;BME280;24535;45.508;12.252;2024-02-15T11:24:51;102393.09;;;13.46;60.21
38786;BME280;24535;45.508;12.252;2024-02-15T11:27:27;102388.72;;;13.45;60.35
38786;BME280;24535;45.508;12.252;2024-02-15T11:30:00;102382.56;;;13.44;59.87
38786;BME280;24535;45.508;12.252;2024-02-15T11:40:23;102377.81;;;13.51;60.64
38786;BME280;24535;45.508;12.252;2024-02-15T11:42:53;102367.13;;;13.52;60.52
38786;BME280;24535;45.508;12.252;2024-02-15T11:45:19;102368.88;;;13.53;60.07
38786;BME280;24535;45.508;12.252;2024-02-15T11:47:50;102361.59;;;13.57;60.09
38786;BME280;24535;45.508;12.252;2024-02-15T11:50:18;102356.25;;;13.58;60.00
38786;BME280;24535;45.508;12.252;2024-02-15T11:52:44;102362.03;;;13.65;60.14
38786;BME280;24535;45.508;12.252;2024-02-15T11:58:23;102343.28;;;13.70;60.58
38786;BME280;24535;45.508;12.252;2024-02-15T12:00:59;102346.69;;;13.72;60.81
38786;BME280;24535;45.508;12.252;2024-02-15T12:03:44;102342.34;;;13.71;60.67
38786;BME280;24535;45.508;12.252;2024-02-15T12:06:28;102343.03;;;13.74;60.65
38786;BME280;24535;45.508;12.252;2024-02-15T12:09:17;102342.09;;;13.75;60.83
38786;BME280;24535;45.508;12.252;2024-02-15T12:12:04;102339.34;;;13.77;61.05
38786;BME280;24535;45.508;12.252;2024-02-15T12:14:59;102335.78;;;13.78;60.44
38786;BME280;24535;45.508;12.252;2024-02-15T12:17:42;102337.47;;;13.79;60.93
38786;BME280;24535;45.508;12.252;2024-02-15T12:20:26;102333.88;;;13.80;60.76
38786;BME280;24535;45.508;12.252;2024-02-15T12:22:52;102327.72;;;13.79;60.63
38786;BME280;24535;45.508;12.252;2024-02-15T12:25:30;102333.63;;;13.84;60.89
38786;BME280;24535;45.508;12.252;2024-02-15T12:28:01;102326.63;;;13.83;60.92
38786;BME280;24535;45.508;12.252;2024-02-15T12:30:33;102315.19;;;13.83;60.58
38786;BME280;24535;45.508;12.252;2024-02-15T12:33:11;102318.41;;;13.88;61.53
38786;BME280;24535;45.508;12.252;2024-02-15T12:35:37;102310.63;;;13.85;60.76
38786;BME280;24535;45.508;12.252;2024-02-15T12:38:03;102310.56;;;13.87;61.23
38786;BME280;24535;45.508;12.252;2024-02-15T12:40:36;102307.97;;;13.85;61.47
38786;BME280;24535;45.508;12.252;2024-02-15T12:43:04;102309.78;;;13.84;60.89
38786;BME280;24535;45.508;12.252;2024-02-15T12:45:40;102305.69;;;13.79;61.56
38786;BME280;24535;45.508;12.252;2024-02-15T12:48:28;102293.19;;;13.81;61.29
38786;BME280;24535;45.508;12.252;2024-02-15T12:50:54;102290.47;;;13.82;61.56
38786;BME280;24535;45.508;12.252;2024-02-15T12:53:23;102290.31;;;13.85;61.23
38786;BME280;24535;45.508;12.252;2024-02-15T12:55:55;102285.94;;;13.84;61.72
38786;BME280;24535;45.508;12.252;2024-02-15T12:58:21;102284.94;;;13.87;61.32
38786;BME280;24535;45.508;12.252;2024-02-15T13:00:49;102284.06;;;13.87;62.04
38786;BME280;24535;45.508;12.252;2024-02-15T13:03:15;102278.69;;;13.88;61.88
38786;BME280;24535;45.508;12.252;2024-02-15T13:05:43;102274.22;;;13.89;61.75